Time;durP1;ratioP1;P1;durP2;ratioP2;P2;SDS_P1;SDS_P2;PMS_P1;PMS_P2;Temp;Humidity;BMP_temperature;BMP_pressure;BME280_temperature;BME280_humidity;BME280_pressure;Samples;Min_cycle;Max_cycle;Signal;HPM_P1;HPM_P2
2024/01/01 00:01:55;;;;;;;60.47;42.03;;;;;;;18.49;65.47;99562.72;5081712;28;20042;-38
2024/01/01 00:04:20;;;;;;;61.80;41.22;;;;;;;18.46;65.75;99568.84;5082364;28;20042;-38
2024/01/01 00:06:46;;;;;;;62.00;39.95;;;;;;;18.44;65.51;99553.50;5084060;28;20328;-39
2024/01/01 00:09:11;;;;;;;61.58;39.25;;;;;;;18.42;65.55;99569.44;5084090;28;20027;-39
2024/01/01 00:11:37;;;;;;;55.85;38.85;;;;;;;18.42;65.92;99557.69;5086427;28;20032;-39
2024/01/01 00:14:03;;;;;;;52.28;36.92;;;;;;;18.41;65.82;99556.06;5087366;28;20384;-38
2024/01/01 00:16:28;;;;;;;49.90;36.20;;;;;;;18.39;65.51;99556.38;5083449;28;20115;-38
2024/01/01 00:18:53;;;;;;;48.80;34.22;;;;;;;18.38;65.64;99552.00;5084341;28;20031;-37
2024/01/01 00:21:19;;;;;;;45.28;33.30;;;;;;;18.35;65.36;99544.38;5085995;28;20077;-38
2024/01/01 00:23:44;;;;;;;46.78;34.03;;;;;;;18.35;65.57;99557.28;5089072;28;20031;-38
2024/01/01 00:26:10;;;;;;;49.65;32.83;;;;;;;18.33;65.67;99546.63;5082436;28;20039;-39
2024/01/01 00:28:35;;;;;;;46.10;32.00;;;;;;;18.32;65.46;99544.19;5083995;28;20031;-38
2024/01/01 00:31:00;;;;;;;41.13;28.73;;;;;;;18.30;65.75;99543.72;5083431;28;20028;-39
2024/01/01 00:33:26;;;;;;;37.45;27.35;;;;;;;18.29;65.59;99542.88;5081952;28;20036;-38
2024/01/01 00:35:51;;;;;;;37.28;26.33;;;;;;;18.27;65.33;99556.91;5081705;28;20072;-38
2024/01/01 00:38:17;;;;;;;37.15;26.60;;;;;;;18.26;65.46;99573.69;5084873;28;20510;-38
2024/01/01 00:40:42;;;;;;;36.33;25.55;;;;;;;18.24;65.36;99567.69;5081559;28;20170;-38
2024/01/01 00:43:07;;;;;;;36.58;25.23;;;;;;;18.22;65.67;99551.56;5082976;28;20043;-39
2024/01/01 00:45:33;;;;;;;33.83;24.25;;;;;;;18.20;65.96;99558.47;5088429;28;20495;-38
2024/01/01 00:47:59;;;;;;;32.55;22.88;;;;;;;18.18;65.82;99557.94;5081134;28;20031;-38
2024/01/01 00:50:24;;;;;;;33.50;21.30;;;;;;;18.17;65.79;99562.59;5082408;28;20047;-38
2024/01/01 00:52:49;;;;;;;32.65;20.17;;;;;;;18.16;65.79;99561.00;5081139;28;20027;-38
2024/01/01 00:55:15;;;;;;;27.42;19.40;;;;;;;18.15;65.82;99561.28;5079509;28;20058;-38
2024/01/01 00:57:40;;;;;;;30.17;20.00;;;;;;;18.14;66.05;99557.75;5081914;28;20050;-38
2024/01/01 01:00:06;;;;;;;26.80;19.45;;;;;;;18.12;65.95;99558.06;5081214;28;20028;-38
2024/01/01 01:02:31;;;;;;;25.75;17.83;;;;;;;18.10;65.84;99552.06;5083902;28;20413;-37
2024/01/01 01:04:57;;;;;;;26.42;17.90;;;;;;;18.09;65.95;99550.44;5080512;28;20017;-39
2024/01/01 01:07:22;;;;;;;26.02;16.83;;;;;;;18.08;65.92;99559.78;5080410;28;20106;-39
2024/01/01 01:09:48;;;;;;;25.00;16.88;;;;;;;18.07;66.26;99557.38;5083027;28;20024;-37
2024/01/01 01:12:13;;;;;;;24.30;15.80;;;;;;;18.06;66.13;99564.78;5083390;28;20342;-37
2024/01/01 01:14:38;;;;;;;20.27;13.77;;;;;;;18.06;66.13;99569.44;5081905;28;20048;-38
2024/01/01 01:17:04;;;;;;;20.00;13.50;;;;;;;18.06;65.96;99583.16;5084393;28;20020;-38
2024/01/01 01:19:30;;;;;;;18.00;11.93;;;;;;;18.05;65.73;99573.31;5081808;28;20028;-37
2024/01/01 01:21:55;;;;;;;22.52;12.32;;;;;;;18.03;65.73;99570.88;5084365;28;20024;-37
2024/01/01 01:24:20;;;;;;;20.25;11.73;;;;;;;18.04;65.81;99579.94;5082709;28;20372;-37
2024/01/01 01:26:46;;;;;;;18.35;11.45;;;;;;;18.01;65.91;99591.50;5065112;28;20028;-38
2024/01/01 01:29:11;;;;;;;22.38;11.15;;;;;;;18.00;65.94;99593.44;5081165;28;20492;-38
2024/01/01 01:31:37;;;;;;;17.42;10.25;;;;;;;17.96;65.74;99582.28;5087063;28;20035;-38
2024/01/01 01:34:02;;;;;;;17.25;10.73;;;;;;;17.96;65.95;99603.38;5078496;28;20020;-38
2024/01/01 01:36:28;;;;;;;15.50;10.38;;;;;;;17.93;66.18;99606.72;5079543;28;20400;-37
2024/01/01 01:38:53;;;;;;;20.85;11.00;;;;;;;17.92;66.20;99618.78;5078730;28;20112;-37
2024/01/01 01:41:19;;;;;;;16.27;9.75;;;;;;;17.89;66.58;99620.22;5082553;28;20455;-38
2024/01/01 01:43:44;;;;;;;16.77;9.50;;;;;;;17.88;66.56;99624.06;5087124;28;20058;-38
2024/01/01 01:46:11;;;;;;;19.70;9.20;;;;;;;17.87;66.54;99624.38;5081963;28;20384;-38
2024/01/01 01:48:37;;;;;;;16.92;8.73;;;;;;;17.88;66.56;99628.72;5116100;27;20614;-38
2024/01/01 01:51:02;;;;;;;17.85;8.90;;;;;;;17.87;66.55;99616.16;5081033;28;20114;-38
2024/01/01 01:53:29;;;;;;;12.95;8.15;;;;;;;17.86;66.92;99628.25;5084746;28;20115;-38
2024/01/01 01:55:57;;;;;;;14.27;7.65;;;;;;;17.86;66.59;99626.28;5098323;28;20032;-37
2024/01/01 01:58:23;;;;;;;14.32;7.60;;;;;;;17.85;66.73;99630.16;5086445;28;20012;-37
2024/01/01 02:00:50;;;;;;;12.68;7.15;;;;;;;17.86;66.88;99629.03;5084054;28;20059;-37
2024/01/01 02:03:16;;;;;;;13.75;7.63;;;;;;;17.84;66.67;99623.06;5081875;28;20544;-39
2024/01/01 02:05:42;;;;;;;14.00;7.15;;;;;;;17.85;66.79;99635.63;5087581;28;20161;-37
2024/01/01 02:08:08;;;;;;;16.60;7.40;;;;;;;17.84;66.89;99623.06;5080767;28;20024;-38
2024/01/01 02:10:33;;;;;;;13.15;6.20;;;;;;;17.85;66.65;99623.88;5079939;28;20741;-38
2024/01/01 02:13:00;;;;;;;12.77;6.63;;;;;;;17.82;66.66;99622.56;5082211;28;20024;-39
2024/01/01 02:15:25;;;;;;;11.48;6.20;;;;;;;17.82;66.63;99625.28;5079607;28;20067;-38
2024/01/01 02:17:51;;;;;;;11.57;6.30;;;;;;;17.81;66.78;99621.72;5079180;28;20033;-38
2024/01/01 02:20:16;;;;;;;10.90;5.78;;;;;;;17.79;66.93;99626.72;5075971;28;20085;-38
2024/01/01 02:22:41;;;;;;;10.80;5.82;;;;;;;17.78;66.95;99619.59;5089406;28;20044;-37
2024/01/01 02:25:12;;;;;;;10.30;5.70;;;;;;;17.78;67.02;99629.75;5083671;28;20114;-37
2024/01/01 02:27:38;;;;;;;9.73;5.65;;;;;;;17.76;67.15;99619.09;5078858;28;20038;-38
2024/01/01 02:30:04;;;;;;;10.52;5.47;;;;;;;17.76;67.45;99626.50;5081921;28;20024;-38
2024/01/01 02:32:30;;;;;;;10.40;5.15;;;;;;;17.74;67.44;99624.09;5084812;28;20117;-37
2024/01/01 02:34:55;;;;;;;12.68;5.45;;;;;;;17.74;67.36;99604.06;5080562;28;20024;-38
2024/01/01 02:37:20;;;;;;;12.02;5.00;;;;;;;17.75;67.39;99624.88;5079578;28;20118;-38
2024/01/01 02:39:46;;;;;;;10.30;5.10;;;;;;;17.73;67.53;99619.72;5081256;28;20153;-38
2024/01/01 02:42:11;;;;;;;18.05;5.72;;;;;;;17.74;67.41;99612.28;5082976;28;20435;-38
2024/01/01 02:44:36;;;;;;;7.88;4.75;;;;;;;17.74;67.73;99617.78;5078600;28;20103;-38
2024/01/01 02:47:02;;;;;;;11.73;4.82;;;;;;;17.73;67.60;99633.41;5111734;27;20169;-38
2024/01/01 02:49:27;;;;;;;11.02;4.70;;;;;;;17.74;67.43;99631.47;5079098;28;20201;-38
2024/01/01 02:51:52;;;;;;;13.05;4.78;;;;;;;17.74;67.55;99631.47;5080745;28;20028;-38
2024/01/01 02:54:19;;;;;;;13.57;4.30;;;;;;;17.72;67.61;99629.03;5074256;28;20040;-38
2024/01/01 02:56:44;;;;;;;14.45;4.65;;;;;;;17.73;67.64;99630.69;5080110;28;20039;-37
2024/01/01 02:59:10;;;;;;;11.60;4.78;;;;;;;17.71;68.00;99626.63;5080250;28;20115;-37
2024/01/01 03:01:35;;;;;;;8.65;4.15;;;;;;;17.70;67.93;99635.94;5079979;28;20413;-37
2024/01/01 03:04:01;;;;;;;12.80;4.35;;;;;;;17.70;67.76;99638.69;5077519;28;20165;-38
2024/01/01 03:06:26;;;;;;;10.60;4.55;;;;;;;17.71;67.74;99626.63;5082145;28;20028;-38
2024/01/01 03:08:52;;;;;;;7.97;4.05;;;;;;;17.69;67.81;99631.56;5079997;28;20989;-38
2024/01/01 03:11:17;;;;;;;10.80;4.32;;;;;;;17.69;67.77;99637.84;5080996;28;20032;-38
2024/01/01 03:13:42;;;;;;;9.32;4.15;;;;;;;17.69;67.91;99642.53;5078275;28;20445;-38
2024/01/01 03:16:08;;;;;;;12.57;4.20;;;;;;;17.68;67.65;99644.44;5078115;28;20113;-37
2024/01/01 03:18:34;;;;;;;12.70;4.18;;;;;;;17.67;68.07;99645.59;5077715;28;20024;-36
2024/01/01 03:20:59;;;;;;;9.50;4.22;;;;;;;17.67;67.86;99647.50;5077912;28;20029;-37
2024/01/01 03:23:25;;;;;;;9.43;4.18;;;;;;;17.66;67.84;99654.91;5081051;28;20016;-37
2024/01/01 03:25:50;;;;;;;16.05;4.07;;;;;;;17.64;67.72;99657.97;5079262;28;20115;-38
2024/01/01 03:28:16;;;;;;;12.65;4.00;;;;;;;17.65;67.86;99661.50;5078454;28;20052;-37
2024/01/01 03:30:42;;;;;;;11.65;3.70;;;;;;;17.64;68.09;99657.16;5081866;28;20055;-38
2024/01/01 03:33:07;;;;;;;12.20;4.32;;;;;;;17.64;67.69;99663.44;5076888;28;20288;-37
2024/01/01 03:35:33;;;;;;;10.45;3.63;;;;;;;17.65;67.69;99667.00;5088409;28;20087;-37
2024/01/01 03:37:59;;;;;;;12.10;3.53;;;;;;;17.63;67.86;99678.25;5079454;28;20039;-37
2024/01/01 03:40:24;;;;;;;11.63;3.80;;;;;;;17.63;67.81;99672.78;5080986;28;20060;-37
2024/01/01 03:42:49;;;;;;;10.05;3.85;;;;;;;17.62;67.93;99659.38;5078159;28;20035;-37
2024/01/01 03:45:15;;;;;;;11.68;3.63;;;;;;;17.61;68.16;99696.91;5081786;28;20069;-38
2024/01/01 03:47:40;;;;;;;10.63;3.35;;;;;;;17.61;67.83;99705.16;5090830;28;20042;-37
2024/01/01 03:50:06;;;;;;;11.77;3.50;;;;;;;17.60;67.95;99686.28;5082995;28;20092;-39
2024/01/01 03:52:32;;;;;;;10.15;3.67;;;;;;;17.59;68.02;99690.13;5081913;28;20028;-39
2024/01/01 03:54:58;;;;;;;10.95;3.72;;;;;;;17.58;67.79;99688.50;5080325;28;20032;-39
2024/01/01 03:57:23;;;;;;;13.05;3.85;;;;;;;17.56;68.23;99685.22;5063969;28;20557;-38
2024/01/01 03:59:49;;;;;;;16.45;3.80;;;;;;;17.54;68.29;99691.03;5077553;28;20459;-38
2024/01/01 04:02:14;;;;;;;11.95;3.42;;;;;;;17.53;68.42;99688.59;5084446;28;20052;-38
2024/01/01 04:04:43;;;;;;;14.55;3.63;;;;;;;17.51;68.15;99683.41;5079247;28;20306;-38
2024/01/01 04:07:09;;;;;;;12.50;4.22;;;;;;;17.51;68.38;99688.91;5082841;28;20062;-38
2024/01/01 04:09:34;;;;;;;11.13;3.42;;;;;;;17.50;68.40;99687.28;5079632;28;20020;-38
2024/01/01 04:12:00;;;;;;;8.35;3.15;;;;;;;17.48;68.75;99695.78;5082566;28;20028;-37
2024/01/01 04:14:25;;;;;;;11.73;3.67;;;;;;;17.46;68.75;99699.91;5089383;28;20439;-37
2024/01/01 04:16:51;;;;;;;10.07;3.55;;;;;;;17.44;68.83;99692.00;5079847;28;20046;-37
2024/01/01 04:19:16;;;;;;;10.38;3.38;;;;;;;17.44;68.90;99702.97;5082177;28;20035;-38
2024/01/01 04:21:41;;;;;;;12.57;3.80;;;;;;;17.43;68.70;99704.06;5076799;28;20447;-36
2024/01/01 04:24:07;;;;;;;12.18;3.40;;;;;;;17.44;68.84;99707.66;5079707;28;20065;-37
2024/01/01 04:26:33;;;;;;;12.23;4.13;;;;;;;17.43;68.80;99706.81;5080287;28;20033;-37
2024/01/01 04:28:58;;;;;;;10.05;3.55;;;;;;;17.42;69.23;99713.41;5062463;28;20020;-37
2024/01/01 04:31:24;;;;;;;12.25;3.78;;;;;;;17.41;68.93;99711.81;5079798;28;20043;-37
2024/01/01 04:33:49;;;;;;;11.73;3.45;;;;;;;17.41;69.35;99708.22;5078822;28;20024;-37
2024/01/01 04:36:15;;;;;;;12.27;3.90;;;;;;;17.39;69.68;99713.22;5079137;28;20032;-37
2024/01/01 04:38:40;;;;;;;13.88;3.38;;;;;;;17.38;69.56;99704.16;5079625;28;20035;-37
2024/01/01 04:41:07;;;;;;;11.10;3.33;;;;;;;17.39;69.74;99724.97;5083115;28;20469;-37
2024/01/01 04:43:32;;;;;;;9.32;3.22;;;;;;;17.38;69.47;99738.97;5077938;28;20028;-38
2024/01/01 04:45:57;;;;;;;13.18;3.85;;;;;;;17.38;69.60;99733.50;5078984;28;20085;-37
2024/01/01 04:48:23;;;;;;;12.30;3.60;;;;;;;17.37;69.49;99731.88;5082312;28;20026;-37
2024/01/01 04:50:49;;;;;;;11.38;3.35;;;;;;;17.36;69.51;99733.78;5085860;28;20652;-37
2024/01/01 04:53:14;;;;;;;11.15;3.33;;;;;;;17.37;69.74;99731.88;5087364;28;20024;-37
2024/01/01 04:55:39;;;;;;;11.10;3.08;;;;;;;17.35;69.75;99731.34;5093070;28;20028;-37
2024/01/01 04:58:05;;;;;;;10.68;3.10;;;;;;;17.36;69.72;99746.66;5085468;28;20016;-37
2024/01/01 05:00:30;;;;;;;12.65;3.42;;;;;;;17.35;69.54;99747.78;5079923;28;20031;-37
2024/01/01 05:02:56;;;;;;;10.02;3.20;;;;;;;17.35;69.71;99758.72;5083875;28;20073;-37
2024/01/01 05:05:22;;;;;;;9.85;3.40;;;;;;;17.36;69.70;99752.16;5082830;28;20372;-37
2024/01/01 05:07:51;;;;;;;9.88;3.17;;;;;;;17.35;69.59;99751.34;5080444;28;20032;-37
2024/01/01 05:10:17;;;;;;;10.18;3.20;;;;;;;17.34;69.64;99746.97;5080854;28;20377;-37
2024/01/01 05:12:43;;;;;;;13.98;3.53;;;;;;;17.36;69.88;99757.63;5087834;28;20039;-37
2024/01/01 05:15:11;;;;;;;11.40;3.10;;;;;;;17.41;69.84;99752.06;5081579;28;20050;-37
2024/01/01 05:17:36;;;;;;;9.52;3.10;;;;;;;17.44;69.85;99760.50;5082842;28;20036;-37
2024/01/01 05:20:03;;;;;;;8.25;2.83;;;;;;;17.48;69.97;99764.28;5081302;28;20108;-37
2024/01/01 05:22:29;;;;;;;12.20;2.92;;;;;;;17.54;69.74;99762.25;5085315;28;20050;-38
2024/01/01 05:24:55;;;;;;;11.05;3.00;;;;;;;17.62;69.85;99760.75;5081999;28;20105;-38
2024/01/01 05:27:20;;;;;;;8.40;3.05;;;;;;;17.69;69.70;99765.84;5084300;28;20027;-38
2024/01/01 05:29:45;;;;;;;8.10;3.00;;;;;;;17.78;69.68;99770.34;5081749;28;20107;-37
2024/01/01 05:32:11;;;;;;;7.65;2.92;;;;;;;17.87;69.65;99775.13;5092733;28;20520;-37
2024/01/01 05:34:36;;;;;;;7.70;2.70;;;;;;;17.95;69.23;99774.44;5082043;28;20040;-37
2024/01/01 05:37:01;;;;;;;6.43;2.50;;;;;;;18.01;69.01;99773.25;5083415;28;20028;-38
2024/01/01 05:39:27;;;;;;;6.88;2.45;;;;;;;18.08;68.80;99773.66;5082135;28;20295;-38
2024/01/01 05:41:52;;;;;;;7.70;2.60;;;;;;;18.16;69.02;99783.13;5083338;28;20026;-37
2024/01/01 05:44:17;;;;;;;7.25;2.70;;;;;;;18.23;68.61;99778.06;5081718;28;20030;-37
2024/01/01 05:46:43;;;;;;;8.50;2.90;;;;;;;18.33;68.66;99781.69;5081811;28;20089;-37
2024/01/01 05:49:09;;;;;;;6.40;2.70;;;;;;;18.40;68.54;99790.34;5079179;28;20024;-37
2024/01/01 05:51:34;;;;;;;7.43;2.40;;;;;;;18.46;68.27;99793.81;5080513;28;20016;-36
2024/01/01 05:53:59;;;;;;;9.68;3.10;;;;;;;18.55;68.40;99800.19;5080893;28;20031;-38
2024/01/01 05:56:25;;;;;;;8.07;2.78;;;;;;;18.64;67.83;99808.50;5086850;28;20031;-38
2024/01/01 05:58:50;;;;;;;9.90;2.92;;;;;;;18.73;67.80;99807.50;5078186;28;20521;-38
2024/01/01 06:01:16;;;;;;;8.85;2.80;;;;;;;18.80;67.79;99809.84;5081858;28;20020;-37
2024/01/01 06:03:42;;;;;;;10.43;2.47;;;;;;;18.83;67.66;99819.38;5078881;28;20500;-38
2024/01/01 06:06:10;;;;;;;7.07;2.80;;;;;;;18.85;67.46;99817.97;5081890;28;20020;-37
2024/01/01 06:08:36;;;;;;;5.05;2.40;;;;;;;18.85;67.61;99828.94;5088348;28;20028;-38
2024/01/01 06:11:01;;;;;;;7.65;2.50;;;;;;;18.84;67.56;99826.50;5081368;28;20024;-38
2024/01/01 06:13:27;;;;;;;5.22;2.33;;;;;;;18.82;67.56;99831.47;5076501;28;20413;-37
2024/01/01 06:15:52;;;;;;;6.85;2.17;;;;;;;18.81;67.51;99838.91;5088927;28;20080;-37
2024/01/01 06:18:19;;;;;;;7.22;2.47;;;;;;;18.77;67.43;99844.22;5092824;28;20031;-37
2024/01/01 06:20:45;;;;;;;7.55;2.40;;;;;;;18.78;67.26;99847.75;5082378;28;20030;-37
2024/01/01 06:23:10;;;;;;;5.75;2.40;;;;;;;18.75;67.39;99843.69;5080104;28;20035;-37
2024/01/01 06:25:36;;;;;;;7.63;2.40;;;;;;;18.75;67.54;99853.88;5081092;28;20076;-37
2024/01/01 06:28:01;;;;;;;7.40;2.55;;;;;;;18.74;67.46;99861.28;5076394;28;20394;-37
2024/01/01 06:30:26;;;;;;;6.75;2.33;;;;;;;18.73;67.23;99861.59;5083888;28;20086;-37
2024/01/01 06:32:52;;;;;;;9.43;2.75;;;;;;;18.73;67.20;99872.56;5081450;28;20535;-37
2024/01/01 06:35:17;;;;;;;9.25;2.55;;;;;;;18.73;67.30;99894.53;5081240;28;20024;-38
2024/01/01 06:37:43;;;;;;;6.95;2.10;;;;;;;18.72;67.25;99874.50;5082208;28;20606;-38
2024/01/01 06:40:09;;;;;;;6.88;2.30;;;;;;;18.71;67.26;99881.13;5085645;28;20036;-38
2024/01/01 06:42:34;;;;;;;5.45;2.20;;;;;;;18.71;66.81;99889.34;5081309;28;20424;-38
2024/01/01 06:45:07;;;;;;;6.07;2.30;;;;;;;18.68;67.15;99889.94;5081563;28;20052;-38
2024/01/01 06:47:33;;;;;;;5.30;2.20;;;;;;;18.65;67.11;99893.31;5081036;28;20949;-37
2024/01/01 06:49:58;;;;;;;7.97;2.22;;;;;;;18.63;67.26;99901.03;5078592;28;20422;-38
2024/01/01 06:52:23;;;;;;;7.15;2.08;;;;;;;18.60;66.67;99904.38;5079700;28;20039;-37
2024/01/01 06:54:49;;;;;;;7.63;2.30;;;;;;;18.59;66.80;99924.72;5085646;28;20438;-38
2024/01/01 06:57:14;;;;;;;4.78;2.10;;;;;;;18.56;66.72;99915.13;5082291;28;20476;-37
2024/01/01 06:59:39;;;;;;;6.60;2.15;;;;;;;18.53;66.92;99907.53;5088241;28;20030;-36
2024/01/01 07:02:05;;;;;;;6.07;2.10;;;;;;;18.51;67.12;99917.16;5111359;27;20042;-38
2024/01/01 07:04:31;;;;;;;6.25;2.33;;;;;;;18.48;67.14;99918.59;5078853;28;20047;-38
2024/01/01 07:06:56;;;;;;;4.50;1.95;;;;;;;18.47;67.11;99924.34;5079813;28;20055;-37
2024/01/01 07:09:22;;;;;;;4.50;2.05;;;;;;;18.44;67.20;99942.25;5082340;28;20023;-37
2024/01/01 07:11:47;;;;;;;6.43;2.53;;;;;;;18.43;67.16;99949.66;5078199;28;20024;-37
2024/01/01 07:14:13;;;;;;;5.10;1.90;;;;;;;18.41;67.34;99945.59;5079918;28;20561;-37
2024/01/01 07:16:38;;;;;;;6.32;2.20;;;;;;;18.39;66.96;99950.56;5080620;28;20032;-38
2024/01/01 07:19:03;;;;;;;8.00;2.33;;;;;;;18.36;67.36;99954.72;5080917;28;20016;-37
2024/01/01 07:21:29;;;;;;;7.63;2.00;;;;;;;18.33;67.36;99958.09;5079189;28;20024;-38
2024/01/01 07:23:54;;;;;;;5.80;1.83;;;;;;;18.33;67.35;99970.97;5081811;28;20027;-38
2024/01/01 07:26:20;;;;;;;5.10;2.20;;;;;;;18.31;67.46;99965.78;5078795;28;20031;-36
2024/01/01 07:28:48;;;;;;;7.43;2.72;;;;;;;18.28;67.29;99972.69;5078747;28;20436;-37
2024/01/01 07:31:13;;;;;;;6.60;2.20;;;;;;;18.28;67.38;99977.34;5078138;28;20080;-37
2024/01/01 07:33:39;;;;;;;8.82;2.20;;;;;;;18.26;67.59;99979.59;5079035;28;20032;-37
2024/01/01 07:36:13;;;;;;;4.40;1.83;;;;;;;18.28;67.43;99982.84;5077261;28;20032;-38
2024/01/01 07:38:39;;;;;;;5.88;2.28;;;;;;;18.30;67.39;99993.53;5085183;28;20031;-37
2024/01/01 07:41:05;;;;;;;6.57;2.25;;;;;;;18.31;67.63;100012.44;5064996;28;20116;-37
2024/01/01 07:43:30;;;;;;;5.13;2.03;;;;;;;18.32;67.39;100018.72;5075044;28;20193;-38
2024/01/01 07:45:55;;;;;;;6.55;2.05;;;;;;;18.35;67.40;100016.19;5082548;28;20031;-38
2024/01/01 07:48:21;;;;;;;6.70;2.13;;;;;;;18.35;67.52;100013.44;5078218;28;20187;-38
2024/01/01 07:50:46;;;;;;;5.18;2.15;;;;;;;18.37;67.70;100018.63;5078536;28;20043;-38
2024/01/01 07:53:12;;;;;;;4.30;1.90;;;;;;;18.38;67.44;100020.25;5079850;28;20564;-37
2024/01/01 07:55:37;;;;;;;6.78;2.20;;;;;;;18.38;67.61;100023.00;5079002;28;20028;-37
2024/01/01 07:58:03;;;;;;;5.72;1.88;;;;;;;18.40;67.61;100029.81;5081072;28;20032;-38
2024/01/01 08:00:28;;;;;;;6.15;2.10;;;;;;;18.39;67.58;100035.63;5078268;28;20026;-38
2024/01/01 08:02:53;;;;;;;7.07;2.17;;;;;;;18.39;67.47;100041.94;5080676;28;20032;-37
2024/01/01 08:05:19;;;;;;;4.80;1.90;;;;;;;18.38;67.47;100043.03;5080224;28;20070;-38
2024/01/01 08:07:47;;;;;;;4.68;1.77;;;;;;;18.37;67.74;100059.78;5082177;28;20103;-38
2024/01/01 08:10:14;;;;;;;4.13;2.05;;;;;;;18.36;67.57;100047.19;5078324;28;20020;-37
2024/01/01 08:12:40;;;;;;;4.78;1.83;;;;;;;18.35;67.56;100045.56;5080055;28;20399;-37
2024/01/01 08:15:05;;;;;;;6.43;2.10;;;;;;;18.34;67.75;100050.22;5078370;28;20293;-39
2024/01/01 08:17:31;;;;;;;5.10;2.00;;;;;;;18.36;67.57;100060.91;5080476;28;20028;-38
2024/01/01 08:19:56;;;;;;;5.40;1.90;;;;;;;18.39;67.70;100072.13;5079734;28;20485;-38
2024/01/01 08:22:21;;;;;;;5.25;1.85;;;;;;;18.41;67.51;100086.31;5081289;28;20032;-38
2024/01/01 08:24:47;;;;;;;9.63;2.40;;;;;;;18.42;67.86;100085.22;5080529;28;20134;-38
2024/01/01 08:27:12;;;;;;;5.28;2.15;;;;;;;18.43;67.55;100078.63;5081597;28;20489;-38
2024/01/01 08:29:37;;;;;;;6.63;2.25;;;;;;;18.45;67.60;100089.28;5080725;28;20088;-37
2024/01/01 08:32:03;;;;;;;4.50;2.00;;;;;;;18.47;67.45;100091.72;5083249;28;20124;-38
2024/01/01 08:34:31;;;;;;;6.68;1.90;;;;;;;18.47;67.45;100092.56;5084508;28;20065;-38
2024/01/01 08:36:58;;;;;;;5.63;2.00;;;;;;;18.46;67.38;100093.66;5091800;28;20468;-37
2024/01/01 08:39:25;;;;;;;8.10;1.80;;;;;;;18.48;67.39;100109.81;5082320;28;20100;-38
2024/01/01 08:41:51;;;;;;;4.72;1.92;;;;;;;18.48;67.30;100109.81;5085095;28;20076;-39
2024/01/01 08:44:16;;;;;;;4.63;1.88;;;;;;;18.48;67.16;100131.78;5090683;28;20028;-38
2024/01/01 08:46:41;;;;;;;5.20;1.80;;;;;;;18.47;67.26;100122.75;5089623;28;20122;-39
2024/01/01 08:49:07;;;;;;;5.65;1.70;;;;;;;18.47;67.40;100117.25;5082293;28;20683;-37
2024/01/01 08:51:33;;;;;;;4.35;1.77;;;;;;;18.46;67.13;100132.09;5084062;28;20346;-37
2024/01/01 08:53:58;;;;;;;4.68;1.90;;;;;;;18.45;67.10;100135.94;5082073;28;20119;-37
2024/01/01 08:56:23;;;;;;;4.72;1.70;;;;;;;18.43;67.14;100141.72;5082866;28;20024;-37
2024/01/01 08:58:49;;;;;;;6.22;2.05;;;;;;;18.44;67.40;100139.78;5082066;28;20519;-38
2024/01/01 09:01:14;;;;;;;7.85;1.90;;;;;;;18.41;67.83;100141.19;5080600;28;20126;-37
2024/01/01 09:03:39;;;;;;;4.40;1.83;;;;;;;18.40;67.10;100145.06;5083105;28;20447;-38
2024/01/01 09:06:05;;;;;;;4.78;1.90;;;;;;;18.41;67.23;100143.13;5084627;28;20119;-39
2024/01/01 09:08:30;;;;;;;5.70;1.90;;;;;;;18.42;67.27;100155.75;5084539;28;20053;-38
2024/01/01 09:10:57;;;;;;;3.72;1.73;;;;;;;18.41;67.24;100163.16;5083811;28;20032;-38
2024/01/01 09:13:22;;;;;;;4.80;1.70;;;;;;;18.42;67.15;100173.00;5080469;28;20561;-37
2024/01/01 09:15:48;;;;;;;3.88;1.60;;;;;;;18.43;67.21;100149.97;5083900;28;20127;-37
2024/01/01 09:18:13;;;;;;;4.65;1.55;;;;;;;18.44;67.11;100159.00;5080597;28;20117;-38
2024/01/01 09:20:41;;;;;;;5.45;1.85;;;;;;;18.45;67.36;100160.63;5082175;28;20028;-38
2024/01/01 09:23:06;;;;;;;3.60;1.65;;;;;;;18.46;67.19;100164.22;5080749;28;20463;-39
2024/01/01 09:25:32;;;;;;;3.47;1.40;;;;;;;18.47;67.08;100158.41;5079961;28;20032;-39
2024/01/01 09:27:57;;;;;;;4.22;1.70;;;;;;;18.48;67.26;100171.03;5079462;28;20020;-39
2024/01/01 09:30:22;;;;;;;5.88;1.92;;;;;;;18.47;67.36;100169.38;5082563;28;20114;-41
2024/01/01 09:32:48;;;;;;;3.88;1.63;;;;;;;18.49;67.25;100177.31;5092511;28;20031;-38
2024/01/01 09:35:13;;;;;;;4.90;1.85;;;;;;;18.48;67.26;100165.53;5081511;28;20340;-38
2024/01/01 09:37:38;;;;;;;4.57;1.85;;;;;;;18.49;67.06;100188.28;5082210;28;20047;-38
2024/01/01 09:40:05;;;;;;;4.10;1.73;;;;;;;18.48;66.96;100184.75;5083723;28;20027;-38
2024/01/01 09:42:30;;;;;;;2.33;1.50;;;;;;;18.49;67.17;100197.34;5083044;28;20036;-38
2024/01/01 09:44:56;;;;;;;2.42;1.23;;;;;;;18.48;66.96;100194.88;5091489;28;20028;-39
2024/01/01 09:47:21;;;;;;;3.85;1.55;;;;;;;18.49;67.08;100219.31;5081805;28;20294;-37
2024/01/01 09:49:47;;;;;;;5.35;1.65;;;;;;;18.49;67.01;100211.06;5082280;28;20020;-37
2024/01/01 09:52:14;;;;;;;2.97;1.40;;;;;;;18.48;66.99;100223.16;5079929;28;20155;-38
2024/01/01 09:54:40;;;;;;;4.13;1.63;;;;;;;18.49;67.07;100218.47;5081404;28;20043;-39
2024/01/01 09:57:05;;;;;;;4.32;1.50;;;;;;;18.49;67.25;100215.72;5080298;28;20430;-38
2024/01/01 09:59:37;;;;;;;4.15;1.40;;;;;;;18.48;67.34;100220.41;5082640;28;20077;-39
2024/01/01 10:02:07;;;;;;;3.65;1.40;;;;;;;18.47;67.40;100229.75;5080748;28;20035;-38
2024/01/01 10:04:34;;;;;;;7.70;1.80;;;;;;;18.48;67.19;100234.13;5083223;28;20054;-38
2024/01/01 10:07:00;;;;;;;4.97;1.75;;;;;;;18.48;67.02;100247.84;5080962;28;20031;-37
2024/01/01 10:09:25;;;;;;;3.55;1.60;;;;;;;18.48;66.96;100238.78;5081868;28;20074;-38
2024/01/01 10:11:50;;;;;;;7.45;1.70;;;;;;;18.48;66.77;100247.84;5077699;28;20062;-37
2024/01/01 10:14:16;;;;;;;5.15;1.88;;;;;;;18.48;66.88;100249.75;5087385;28;20071;-37
2024/01/01 10:16:42;;;;;;;3.80;1.50;;;;;;;18.48;66.77;100256.09;5082138;28;20024;-37
2024/01/01 10:19:08;;;;;;;4.60;1.88;;;;;;;18.48;66.80;100258.00;5082037;28;20040;-37
2024/01/01 10:21:35;;;;;;;5.63;1.73;;;;;;;18.47;66.92;100257.19;5075464;28;20555;-37
2024/01/01 10:24:15;;;;;;;4.70;1.73;;;;;;;18.46;66.28;100269.28;5081978;28;20093;-37
2024/01/01 10:26:45;;;;;;;3.28;1.65;;;;;;;18.46;66.33;100260.25;5085724;28;20451;-37
2024/01/01 10:29:12;;;;;;;6.30;1.70;;;;;;;18.44;66.52;100258.59;5084147;28;20027;-37
2024/01/01 10:31:44;;;;;;;5.40;1.70;;;;;;;18.44;66.63;100255.03;5079448;28;20024;-37
2024/01/01 10:34:10;;;;;;;4.32;1.48;;;;;;;18.43;66.86;100262.44;5081193;28;20024;-38
2024/01/01 10:36:35;;;;;;;6.43;1.70;;;;;;;18.44;67.00;100258.59;5082127;28;20532;-37
2024/01/01 10:39:01;;;;;;;7.00;2.00;;;;;;;18.42;66.84;100260.81;5080292;28;20111;-38
2024/01/01 10:41:27;;;;;;;4.20;1.77;;;;;;;18.41;66.81;100261.91;5079609;28;20526;-38
2024/01/01 10:43:54;;;;;;;5.15;1.95;;;;;;;18.43;66.88;100267.94;5081669;28;20030;-38
2024/01/01 10:46:20;;;;;;;3.75;1.60;;;;;;;18.44;66.77;100263.25;5079532;28;20458;-38
2024/01/01 10:48:46;;;;;;;4.72;1.77;;;;;;;18.43;66.71;100267.94;5082458;28;20028;-38
2024/01/01 10:51:41;;;;;;;8.65;2.08;;;;;;;18.44;66.53;100269.56;5076682;28;20032;-38
2024/01/01 10:54:25;;;;;;;6.60;1.80;;;;;;;18.43;66.84;100262.44;5076702;28;20451;-38
2024/01/01 10:57:13;;;;;;;18.58;2.15;;;;;;;18.44;66.81;100266.00;5093267;28;20331;-39
2024/01/01 10:59:46;;;;;;;13.18;2.22;;;;;;;18.47;66.79;100276.41;5112822;27;21612;-40
2024/01/01 11:02:11;;;;;;;7.47;1.83;;;;;;;18.52;67.21;100279.06;5058809;28;20035;-40
2024/01/01 11:04:37;;;;;;;4.75;1.67;;;;;;;18.57;67.29;100270.78;5078293;28;20354;-37
2024/01/01 11:07:02;;;;;;;8.48;2.00;;;;;;;18.65;66.97;100279.47;5108744;27;20115;-37
2024/01/01 11:09:29;;;;;;;8.82;2.40;;;;;;;18.72;66.88;100278.00;5078860;28;20040;-38
2024/01/01 11:11:55;;;;;;;9.52;1.80;;;;;;;18.76;66.69;100284.53;5082062;28;20084;-37
2024/01/01 11:14:28;;;;;;;8.25;2.22;;;;;;;18.82;66.74;100293.53;5080341;28;20043;-38
2024/01/01 11:16:56;;;;;;;7.28;2.30;;;;;;;18.88;66.42;100288.75;5079531;28;20048;-37
2024/01/01 11:19:34;;;;;;;7.75;2.25;;;;;;;18.95;66.11;100308.47;5080227;28;20025;-37
2024/01/01 11:22:33;;;;;;;5.00;1.85;;;;;;;19.03;66.06;100306.97;5080978;28;20101;-38